PH-0035 weather

Joy-Nostalg Heliport
Pasig, Philippines

Public forecast

Using degrees Celsius for public forecast. Weather courtesy of forecast.io.

METAR (pilot weather report)

Closest report is Ninoy Aquino International Airport, 5.3 nm (9.8 km) SSW. Retrieved 2019/09/22 12:00 UTC (59 minutes ago):

RPLL 221200Z 26007KT 240V300 9999 FEW025 BKN100 28/25 Q1013 NOSIG RMK A2991

TAF (pilot weather forecast)

Closest forecast is Ninoy Aquino International Airport, 5.3 nm (9.8 km) SSW. Retrieved 2019/09/22 12:00 UTC (59 minutes ago):

TAF RPLL 221100Z 2212/2318 26006KT 9999 FEW025 BKN300 TX31/2306Z TN25/2222Z TEMPO 2212/2218 24007KT FEW020 BKN100 TEMPO 2218/2224 VRB03KT FEW025 SCT300